createdAt,value
2018-11-14T00:03:51.407Z,6.08
2018-11-14T00:08:54.756Z,5.99
2018-11-14T00:13:58.265Z,6.10
2018-11-14T00:19:01.448Z,6.13
2018-11-14T00:24:04.892Z,6.05
2018-11-14T00:29:07.978Z,6.03
2018-11-14T00:34:11.323Z,6.07
2018-11-14T00:39:14.480Z,5.94
2018-11-14T00:44:17.589Z,5.73
2018-11-14T00:49:20.834Z,5.56
2018-11-14T00:54:24.024Z,5.35
2018-11-14T00:59:29.266Z,5.27
2018-11-14T01:04:32.554Z,5.21
2018-11-14T01:09:35.703Z,5.12
2018-11-14T01:14:38.858Z,4.98
2018-11-14T01:19:41.985Z,4.96
2018-11-14T01:24:45.161Z,4.89
2018-11-14T01:29:48.303Z,4.81
2018-11-14T01:34:51.467Z,4.77
2018-11-14T01:39:54.758Z,4.79
2018-11-14T01:45:04.080Z,4.71
2018-11-14T01:50:08.615Z,4.74
2018-11-14T01:55:12.009Z,4.85
2018-11-14T02:00:16.253Z,4.90
2018-11-14T02:05:19.440Z,4.84
2018-11-14T02:10:22.641Z,4.73
2018-11-14T02:15:25.852Z,4.71
2018-11-14T02:20:29.083Z,4.55
2018-11-14T02:25:32.836Z,4.41
2018-11-14T02:30:36.184Z,4.37
2018-11-14T02:35:39.339Z,4.23
2018-11-14T02:40:42.553Z,4.13
2018-11-14T02:45:45.657Z,4.07
2018-11-14T02:50:58.726Z,3.96
2018-11-14T02:56:06.411Z,3.88
2018-11-14T03:01:09.580Z,3.83
2018-11-14T03:06:12.765Z,3.81
2018-11-14T03:11:15.902Z,3.92
2018-11-14T03:16:19.061Z,3.90
2018-11-14T03:21:22.305Z,4.03
2018-11-14T03:26:25.502Z,4.32
2018-11-14T03:31:28.734Z,4.42
2018-11-14T03:36:32.029Z,4.42
2018-11-14T03:41:35.507Z,4.28
2018-11-14T03:46:38.748Z,4.22
2018-11-14T03:51:41.979Z,4.11
2018-11-14T03:56:45.317Z,4.01
2018-11-14T04:01:48.526Z,3.92
2018-11-14T04:06:51.783Z,3.67
2018-11-14T04:11:55.164Z,3.51
2018-11-14T04:16:58.347Z,3.38
2018-11-14T04:22:01.641Z,3.38
2018-11-14T04:27:04.869Z,3.34
2018-11-14T04:32:08.066Z,3.35
2018-11-14T04:37:11.225Z,3.33
2018-11-14T04:42:14.597Z,3.14
2018-11-14T04:47:17.763Z,3.00
2018-11-14T04:52:20.899Z,2.88
2018-11-14T04:57:26.057Z,2.88
2018-11-14T05:02:29.466Z,3.01
2018-11-14T05:07:32.822Z,3.06
2018-11-14T05:12:36.175Z,2.92
2018-11-14T05:17:39.380Z,2.87
2018-11-14T05:22:42.564Z,2.89
2018-11-14T05:27:45.890Z,2.91
2018-11-14T05:32:49.030Z,2.91
2018-11-14T05:37:52.373Z,3.01
2018-11-14T05:42:55.845Z,3.07
2018-11-14T05:47:59.187Z,3.02
2018-11-14T05:53:02.344Z,2.83
2018-11-14T05:58:05.707Z,2.79
2018-11-14T06:03:11.241Z,2.93
2018-11-14T06:08:14.420Z,2.86
2018-11-14T06:13:17.729Z,2.95
2018-11-14T06:18:20.856Z,3.02
2018-11-14T06:23:24.292Z,3.09
2018-11-14T06:28:27.581Z,3.19
2018-11-14T06:33:31.057Z,3.27
2018-11-14T06:38:34.380Z,3.41
2018-11-14T06:43:37.531Z,3.43
2018-11-14T06:48:40.825Z,3.54
2018-11-14T06:53:44.612Z,3.80
2018-11-14T06:58:47.814Z,3.90
2018-11-14T07:03:51.705Z,3.97
2018-11-14T07:08:55.085Z,3.97
2018-11-14T07:13:59.021Z,3.98
2018-11-14T07:19:02.312Z,4.18
2018-11-14T07:24:05.473Z,4.36
2018-11-14T07:29:09.718Z,4.51
2018-11-14T07:34:13.837Z,4.68
2018-11-14T07:39:17.444Z,4.91
2018-11-14T07:44:20.664Z,5.20
2018-11-14T07:49:23.843Z,5.55
2018-11-14T07:54:27.846Z,5.73
2018-11-14T07:59:31.061Z,5.80
2018-11-14T08:04:36.465Z,5.83
2018-11-14T08:09:43.095Z,5.94
2018-11-14T08:14:46.371Z,6.05
2018-11-14T08:19:49.477Z,5.96
2018-11-14T08:24:52.679Z,6.13
2018-11-14T08:29:56.170Z,6.48
2018-11-14T08:35:20.593Z,6.64
2018-11-14T08:40:25.744Z,7.01
2018-11-14T08:45:29.140Z,7.19
2018-11-14T08:50:32.367Z,7.38
2018-11-14T08:55:35.734Z,7.73
2018-11-14T09:00:38.963Z,8.05
2018-11-14T09:05:42.126Z,8.37
2018-11-14T09:10:45.392Z,8.27
2018-11-14T09:15:48.571Z,8.30
2018-11-14T09:20:52.661Z,8.69
2018-11-14T09:25:56.090Z,8.74
2018-11-14T09:31:00.580Z,8.88
2018-11-14T09:36:03.886Z,9.33
2018-11-14T09:41:07.181Z,9.40
2018-11-14T09:46:10.378Z,9.60
2018-11-14T09:51:13.507Z,9.87
2018-11-14T09:56:16.850Z,9.94
2018-11-14T10:01:20.527Z,10.46
2018-11-14T10:06:25.812Z,11.34
2018-11-14T10:11:29.001Z,12.45
2018-11-14T10:16:32.201Z,12.91
2018-11-14T10:21:36.258Z,13.60
2018-11-14T10:26:41.070Z,13.75
2018-11-14T10:31:44.314Z,14.34
2018-11-14T10:36:47.500Z,14.25
2018-11-14T10:41:52.460Z,14.78
2018-11-14T10:46:56.456Z,14.64
2018-11-14T10:51:59.742Z,14.77
2018-11-14T10:57:03.006Z,14.91
2018-11-14T11:02:06.626Z,14.15
2018-11-14T11:07:09.808Z,13.31
2018-11-14T11:12:13.023Z,13.12
2018-11-14T11:17:16.324Z,12.64
2018-11-14T11:22:19.489Z,11.73
2018-11-14T11:27:22.602Z,11.15
2018-11-14T11:32:26.042Z,11.03
2018-11-14T11:37:29.243Z,10.99
2018-11-14T11:42:32.605Z,10.77
2018-11-14T11:47:35.802Z,11.03
2018-11-14T11:52:39.072Z,11.07
2018-11-14T11:57:42.296Z,11.34
2018-11-14T12:02:45.484Z,11.65
2018-11-14T12:07:49.405Z,12.37
2018-11-14T12:12:52.660Z,13.05
2018-11-14T12:17:55.844Z,12.89
2018-11-14T12:22:59.097Z,13.08
2018-11-14T12:28:02.571Z,13.11
2018-11-14T12:33:05.835Z,13.22
2018-11-14T12:38:09.058Z,13.26
2018-11-14T12:43:12.330Z,13.09
2018-11-14T12:48:15.601Z,12.33
2018-11-14T12:53:18.766Z,12.06
2018-11-14T12:58:21.959Z,12.39
2018-11-14T13:03:25.164Z,12.79
2018-11-14T13:08:28.613Z,13.27
2018-11-14T13:13:31.886Z,13.52
2018-11-14T13:18:35.302Z,12.69
2018-11-14T13:23:38.552Z,12.92
2018-11-14T13:28:41.862Z,12.72
2018-11-14T13:33:45.098Z,12.43
2018-11-14T13:38:48.321Z,12.13
2018-11-14T13:43:51.509Z,12.17
2018-11-14T13:48:55.186Z,12.29
2018-11-14T13:53:58.396Z,12.45
2018-11-14T13:59:01.957Z,12.49
2018-11-14T14:04:05.171Z,12.32
2018-11-14T14:09:09.403Z,12.09
2018-11-14T14:14:12.618Z,11.83
2018-11-14T14:19:15.882Z,11.44
2018-11-14T14:24:19.100Z,11.05
2018-11-14T14:29:22.306Z,10.67
2018-11-14T14:34:25.554Z,10.33
2018-11-14T14:39:28.795Z,10.01
2018-11-14T14:44:32.019Z,9.63
2018-11-14T14:49:36.310Z,9.26
2018-11-14T14:54:40.308Z,8.94
2018-11-14T14:59:44.088Z,8.51
2018-11-14T15:04:48.110Z,8.18
2018-11-14T15:09:51.337Z,7.79
2018-11-14T15:14:54.600Z,7.63
2018-11-14T15:19:58.041Z,7.36
2018-11-14T15:25:01.256Z,7.05
2018-11-14T15:30:05.908Z,6.85
2018-11-14T15:35:09.100Z,6.55
2018-11-14T15:40:12.601Z,6.41
2018-11-14T15:45:16.005Z,6.33
2018-11-14T15:50:19.513Z,6.38
2018-11-14T15:55:23.209Z,6.18
2018-11-14T16:00:26.558Z,6.11
2018-11-14T16:05:29.959Z,6.19
2018-11-14T16:10:33.125Z,5.91
2018-11-14T16:15:37.215Z,5.79
2018-11-14T16:20:40.670Z,5.55
2018-11-14T16:25:44.447Z,5.44
2018-11-14T16:30:47.766Z,5.39
2018-11-14T16:35:51.070Z,5.39
2018-11-14T16:40:54.348Z,5.32
2018-11-14T16:45:59.748Z,5.24
2018-11-14T16:51:03.024Z,5.23
2018-11-14T16:56:06.175Z,5.27
2018-11-14T17:01:10.056Z,5.30
2018-11-14T17:06:13.352Z,5.38
2018-11-14T17:11:17.215Z,5.43
2018-11-14T17:16:20.439Z,5.54
2018-11-14T17:21:23.765Z,5.51
2018-11-14T17:26:27.036Z,5.54
2018-11-14T17:31:30.237Z,5.48
2018-11-14T17:36:33.429Z,5.51
2018-11-14T17:41:36.639Z,5.50
2018-11-14T17:46:40.183Z,5.46
2018-11-14T17:51:43.661Z,5.36
2018-11-14T17:56:47.103Z,5.30
2018-11-14T18:01:50.474Z,5.16
2018-11-14T18:06:54.048Z,5.03
2018-11-14T18:11:58.935Z,4.86
2018-11-14T18:17:03.114Z,4.81
2018-11-14T18:22:06.561Z,4.83
2018-11-14T18:27:10.194Z,4.83
2018-11-14T18:32:13.590Z,4.75
2018-11-14T18:37:17.754Z,4.81
2018-11-14T18:42:23.035Z,4.74
2018-11-14T18:47:26.225Z,4.50
2018-11-14T18:52:29.428Z,4.39
2018-11-14T18:57:32.666Z,4.30
2018-11-14T19:02:38.332Z,4.36
2018-11-14T19:07:50.753Z,4.34
2018-11-14T19:12:59.234Z,4.32
2018-11-14T19:18:08.799Z,4.38
2018-11-14T19:23:12.594Z,4.53
2018-11-14T19:28:16.455Z,4.61
2018-11-14T19:33:20.563Z,4.66
2018-11-14T19:38:23.835Z,4.69
2018-11-14T19:43:32.870Z,4.73
2018-11-14T19:48:36.327Z,4.81
2018-11-14T19:53:40.461Z,4.84
2018-11-14T19:58:43.584Z,4.88
2018-11-14T20:03:46.916Z,4.88
2018-11-14T20:08:50.191Z,4.82
2018-11-14T20:13:54.436Z,4.77
2018-11-14T20:18:58.973Z,4.81
2018-11-14T20:24:07.496Z,4.83
2018-11-14T20:29:11.820Z,4.79
2018-11-14T20:34:15.492Z,4.78
2018-11-14T20:39:20.183Z,4.79
2018-11-14T20:44:25.881Z,4.73
2018-11-14T20:49:29.092Z,4.70
2018-11-14T20:54:32.448Z,4.54
2018-11-14T20:59:36.265Z,4.48
2018-11-14T21:04:39.538Z,4.49
2018-11-14T21:09:44.177Z,4.40
2018-11-14T21:14:48.108Z,4.43
2018-11-14T21:19:52.115Z,4.37
2018-11-14T21:24:56.058Z,4.33
2018-11-14T21:29:59.405Z,4.20
2018-11-14T21:35:04.232Z,4.11
2018-11-14T21:40:10.821Z,4.00
2018-11-14T21:45:16.322Z,3.86
2018-11-14T21:50:21.503Z,3.76
2018-11-14T21:55:26.627Z,3.67
2018-11-14T22:00:31.903Z,3.65
2018-11-14T22:05:37.800Z,3.57
2018-11-14T22:10:43.076Z,3.45
2018-11-14T22:15:49.577Z,3.45
2018-11-14T22:20:53.551Z,3.42
2018-11-14T22:25:56.835Z,3.35
2018-11-14T22:31:00.025Z,3.27
2018-11-14T22:36:03.450Z,3.12
2018-11-14T22:41:06.684Z,3.05
2018-11-14T22:46:10.288Z,2.95
2018-11-14T22:51:13.657Z,2.85
2018-11-14T22:56:16.962Z,2.80
2018-11-14T23:01:20.509Z,2.77
2018-11-14T23:06:23.944Z,2.74
2018-11-14T23:11:27.143Z,2.76
2018-11-14T23:16:30.322Z,2.70
2018-11-14T23:21:33.465Z,2.58
2018-11-14T23:26:36.725Z,2.52
2018-11-14T23:31:39.930Z,2.46
2018-11-14T23:36:43.090Z,2.42
2018-11-14T23:41:46.314Z,2.47
2018-11-14T23:46:49.609Z,2.50
2018-11-14T23:51:52.834Z,2.42
2018-11-14T23:56:56.000Z,2.31
